createdAt,value
2022-09-07T00:00:31.929Z,4.57
2022-09-07T00:03:17.693Z,4.78
2022-09-07T00:06:09.277Z,5.38
2022-09-07T00:08:55.419Z,4.82
2022-09-07T00:11:40.860Z,4.85
2022-09-07T00:14:26.357Z,4.93
2022-09-07T00:17:11.623Z,5.32
2022-09-07T00:19:57.177Z,4.68
2022-09-07T00:22:42.429Z,4.15
2022-09-07T00:25:30.741Z,4.82
2022-09-07T00:28:17.325Z,4.60
2022-09-07T00:31:03.789Z,4.82
2022-09-07T00:33:50.706Z,4.63
2022-09-07T00:36:36.070Z,4.47
2022-09-07T00:39:21.309Z,5.15
2022-09-07T00:42:06.796Z,4.22
2022-09-07T00:45:01.915Z,5.15
2022-09-07T00:47:56.817Z,4.35
2022-09-07T00:50:53.578Z,4.15
2022-09-07T00:53:44.938Z,4.63
2022-09-07T00:56:34.847Z,5.50
2022-09-07T00:59:25.172Z,3.90
2022-09-07T01:02:12.332Z,4.93
2022-09-07T01:05:09.513Z,5.35
2022-09-07T01:07:56.431Z,4.78
2022-09-07T01:10:42.238Z,3.80
2022-09-07T01:13:28.025Z,4.10
2022-09-07T01:16:32.712Z,5.07
2022-09-07T01:19:27.268Z,4.82
2022-09-07T01:22:28.208Z,4.63
2022-09-07T01:25:25.933Z,4.57
2022-09-07T01:28:22.092Z,5.47
2022-09-07T01:31:42.983Z,3.95
2022-09-07T01:34:28.657Z,4.63
2022-09-07T01:37:43.547Z,4.43
2022-09-07T01:41:13.875Z,4.40
2022-09-07T01:44:40.612Z,4.53
2022-09-07T01:47:32.124Z,4.15
2022-09-07T01:50:36.331Z,5.43
2022-09-07T01:53:45.133Z,4.10
2022-09-07T01:56:36.153Z,4.78
2022-09-07T01:59:27.613Z,4.40
2022-09-07T02:02:28.648Z,4.30
2022-09-07T02:05:20.865Z,3.97
2022-09-07T02:08:10.579Z,4.65
2022-09-07T02:11:02.309Z,4.75
2022-09-07T02:13:56.682Z,4.00
2022-09-07T02:17:06.725Z,3.85
2022-09-07T02:20:03.627Z,3.85
2022-09-07T02:22:54.174Z,3.97
2022-09-07T02:25:44.726Z,4.45
2022-09-07T02:28:35.485Z,4.15
2022-09-07T02:31:21.482Z,4.10
2022-09-07T02:34:07.134Z,4.30
2022-09-07T02:36:54.133Z,4.15
2022-09-07T02:39:39.784Z,4.65
2022-09-07T02:42:35.890Z,4.78
2022-09-07T02:45:21.951Z,4.18
2022-09-07T02:48:23.126Z,4.07
2022-09-07T02:51:50.102Z,4.10
2022-09-07T02:55:00.715Z,4.43
2022-09-07T02:58:20.805Z,4.15
2022-09-07T03:01:09.123Z,4.47
2022-09-07T03:04:12.852Z,4.95
2022-09-07T03:07:30.253Z,4.32
2022-09-07T03:10:17.980Z,4.03
2022-09-07T03:13:03.810Z,4.00
2022-09-07T03:15:55.025Z,3.88
2022-09-07T03:18:42.476Z,4.15
2022-09-07T03:21:27.896Z,4.45
2022-09-07T03:24:13.094Z,4.32
2022-09-07T03:26:59.155Z,4.05
2022-09-07T03:29:44.680Z,3.70
2022-09-07T03:32:35.069Z,4.20
2022-09-07T03:35:20.594Z,4.05
2022-09-07T03:38:06.229Z,4.00
2022-09-07T03:41:06.791Z,4.10
2022-09-07T03:43:52.372Z,3.80
2022-09-07T03:46:37.871Z,4.38
2022-09-07T03:49:23.263Z,4.40
2022-09-07T03:52:08.856Z,4.10
2022-09-07T03:54:54.193Z,4.30
2022-09-07T03:57:40.439Z,4.18
2022-09-07T04:00:26.101Z,4.50
2022-09-07T04:03:11.483Z,3.97
2022-09-07T04:05:59.818Z,3.58
2022-09-07T04:08:45.824Z,4.30
2022-09-07T04:11:32.022Z,3.92
2022-09-07T04:14:17.946Z,4.50
2022-09-07T04:17:03.433Z,4.40
2022-09-07T04:19:49.297Z,3.80
2022-09-07T04:22:35.250Z,3.65
2022-09-07T04:25:20.898Z,4.43
2022-09-07T04:28:06.462Z,4.93
2022-09-07T04:30:51.911Z,4.40
2022-09-07T04:33:37.761Z,4.10
2022-09-07T04:36:24.966Z,3.90
2022-09-07T04:39:11.088Z,3.65
2022-09-07T04:41:56.851Z,4.50
2022-09-07T04:44:42.230Z,4.07
2022-09-07T04:47:30.594Z,4.45
2022-09-07T04:50:18.067Z,4.28
2022-09-07T04:53:03.839Z,5.25
2022-09-07T04:55:49.124Z,4.07
2022-09-07T04:58:35.333Z,3.97
2022-09-07T05:01:22.826Z,3.97
2022-09-07T05:04:09.035Z,3.95
2022-09-07T05:06:54.841Z,3.78
2022-09-07T05:09:40.434Z,4.10
2022-09-07T05:12:25.889Z,4.35
2022-09-07T05:15:11.575Z,3.60
2022-09-07T05:18:00.312Z,4.25
2022-09-07T05:20:45.751Z,4.18
2022-09-07T05:23:31.165Z,3.70
2022-09-07T05:26:17.165Z,3.80
2022-09-07T05:32:11.206Z,4.38
2022-09-07T05:34:56.502Z,3.70
2022-09-07T05:37:41.974Z,3.72
2022-09-07T05:40:31.820Z,3.60
2022-09-07T05:43:18.014Z,3.72
2022-09-07T05:46:03.961Z,4.32
2022-09-07T05:48:50.094Z,4.05
2022-09-07T05:51:37.239Z,3.30
2022-09-07T05:54:22.600Z,2.78
2022-09-07T05:57:11.466Z,2.58
2022-09-07T05:59:56.934Z,3.22
2022-09-07T06:02:43.397Z,3.22
2022-09-07T06:05:29.050Z,2.90
2022-09-07T06:08:14.422Z,2.67
2022-09-07T06:11:08.724Z,3.10
2022-09-07T06:13:54.214Z,3.42
2022-09-07T06:16:40.286Z,3.15
2022-09-07T06:19:25.587Z,3.20
2022-09-07T06:22:11.243Z,3.13
2022-09-07T06:24:56.899Z,2.65
2022-09-07T06:27:42.264Z,2.92
2022-09-07T06:30:27.795Z,2.75
2022-09-07T06:33:15.011Z,2.65
2022-09-07T06:36:05.238Z,2.83
2022-09-07T06:38:51.581Z,3.10
2022-09-07T06:44:48.188Z,2.90
2022-09-07T06:47:33.582Z,3.05
2022-09-07T06:50:18.888Z,2.83
2022-09-07T06:56:13.441Z,2.47
2022-09-07T06:58:59.833Z,3.22
2022-09-07T07:01:45.639Z,3.42
2022-09-07T07:04:30.874Z,3.38
2022-09-07T07:07:16.439Z,3.38
2022-09-07T07:10:01.890Z,3.42
2022-09-07T07:12:47.276Z,2.80
2022-09-07T07:15:33.420Z,3.10
2022-09-07T07:18:21.235Z,3.00
2022-09-07T07:21:12.807Z,3.25
2022-09-07T07:23:58.822Z,3.13
2022-09-07T07:26:48.579Z,2.67
2022-09-07T07:29:34.231Z,2.90
2022-09-07T07:32:19.767Z,3.13
2022-09-07T07:35:07.467Z,3.65
2022-09-07T07:44:05.585Z,3.17
2022-09-07T07:46:51.703Z,2.97
2022-09-07T07:49:37.309Z,3.35
2022-09-07T07:55:43.745Z,2.90
2022-09-07T07:58:32.512Z,2.97
2022-09-07T08:01:22.138Z,3.40
2022-09-07T08:04:08.125Z,2.72
2022-09-07T08:06:53.820Z,2.90
2022-09-07T08:09:44.465Z,3.08
2022-09-07T08:12:31.333Z,2.88
2022-09-07T08:15:16.880Z,3.55
2022-09-07T08:18:03.795Z,3.50
2022-09-07T08:20:49.396Z,3.40
2022-09-07T08:23:35.180Z,3.00
2022-09-07T08:26:20.883Z,2.50
2022-09-07T08:29:06.361Z,3.30
2022-09-07T08:31:52.123Z,3.05
2022-09-07T08:34:56.785Z,2.97
2022-09-07T08:37:42.069Z,2.85
2022-09-07T08:40:27.552Z,2.90
2022-09-07T08:43:21.647Z,2.72
2022-09-07T08:46:27.946Z,2.65
2022-09-07T08:49:20.419Z,2.78
2022-09-07T08:52:12.147Z,2.75
2022-09-07T08:58:45.265Z,3.92
2022-09-07T09:01:33.145Z,2.53
2022-09-07T09:04:28.654Z,2.70
2022-09-07T09:07:36.081Z,2.22
2022-09-07T09:10:35.925Z,2.70
2022-09-07T09:13:34.762Z,2.45
2022-09-07T09:16:38.290Z,2.30
2022-09-07T09:20:08.170Z,2.80
2022-09-07T09:23:39.511Z,2.53
2022-09-07T09:26:27.368Z,2.50
2022-09-07T09:29:21.457Z,2.20
2022-09-07T09:32:41.418Z,2.55
2022-09-07T09:35:36.165Z,2.30
2022-09-07T09:38:29.489Z,2.00
2022-09-07T09:41:16.161Z,2.55
2022-09-07T09:44:03.437Z,2.50
2022-09-07T09:50:05.309Z,2.53
2022-09-07T09:52:52.779Z,2.20
2022-09-07T09:55:38.238Z,2.40
2022-09-07T10:04:51.787Z,2.65
2022-09-07T10:07:37.733Z,3.13
2022-09-07T10:10:23.761Z,2.80
2022-09-07T10:13:21.571Z,2.78
2022-09-07T10:16:09.227Z,2.13
2022-09-07T10:18:57.648Z,2.33
2022-09-07T10:21:57.998Z,2.65
2022-09-07T10:24:44.621Z,2.67
2022-09-07T10:27:33.187Z,2.22
2022-09-07T10:30:19.026Z,2.67
2022-09-07T10:33:12.258Z,2.20
2022-09-07T10:36:24.179Z,2.80
2022-09-07T10:43:20.554Z,2.50
2022-09-07T10:46:06.873Z,2.55
2022-09-07T10:49:37.797Z,2.75
2022-09-07T10:52:23.971Z,2.60
2022-09-07T10:55:16.965Z,2.55
2022-09-07T10:58:21.131Z,2.22
2022-09-07T11:01:51.979Z,2.80
2022-09-07T11:05:31.085Z,2.80
2022-09-07T11:12:01.116Z,2.63
2022-09-07T11:14:52.615Z,2.13
2022-09-07T11:18:04.794Z,2.50
2022-09-07T11:24:03.802Z,2.55
2022-09-07T11:26:55.204Z,2.60
2022-09-07T11:30:24.134Z,2.42
2022-09-07T11:33:25.332Z,2.78
2022-09-07T11:36:18.105Z,2.28
2022-09-07T11:39:17.497Z,2.40
2022-09-07T11:45:30.898Z,2.22
2022-09-07T11:48:41.702Z,2.42
2022-09-07T11:51:38.852Z,2.00
2022-09-07T11:54:43.157Z,2.22
2022-09-07T11:57:53.614Z,2.20
2022-09-07T12:00:43.726Z,2.40
2022-09-07T12:04:15.418Z,2.75
2022-09-07T12:07:26.890Z,2.47
2022-09-07T12:10:51.144Z,2.15
2022-09-07T12:13:58.500Z,2.38
2022-09-07T12:17:04.073Z,2.20
2022-09-07T12:20:18.641Z,1.92
2022-09-07T12:23:16.370Z,2.63
2022-09-07T12:26:33.471Z,2.17
2022-09-07T12:29:24.839Z,6.35
2022-09-07T12:35:33.983Z,2.42
2022-09-07T12:38:19.547Z,2.63
2022-09-07T12:41:24.873Z,2.38
2022-09-07T12:44:20.122Z,2.67
2022-09-07T12:47:12.577Z,2.28
2022-09-07T12:50:06.576Z,2.25
2022-09-07T12:53:10.800Z,2.35
2022-09-07T12:56:24.574Z,2.38
2022-09-07T12:59:32.754Z,2.45
2022-09-07T13:02:33.738Z,2.40
2022-09-07T13:05:35.925Z,2.75
2022-09-07T13:08:46.848Z,2.58
2022-09-07T13:11:38.437Z,2.50
2022-09-07T13:14:28.665Z,2.10
2022-09-07T13:17:34.798Z,2.25
2022-09-07T13:20:24.075Z,2.42
2022-09-07T13:23:21.283Z,2.17
2022-09-07T13:26:10.922Z,2.38
2022-09-07T13:29:00.965Z,2.08
2022-09-07T13:32:10.382Z,2.30
2022-09-07T13:35:03.430Z,2.55
2022-09-07T13:37:54.378Z,2.33
2022-09-07T13:40:47.033Z,2.10
2022-09-07T13:43:34.669Z,2.60
2022-09-07T13:46:32.253Z,2.50
2022-09-07T13:49:55.880Z,2.40
2022-09-07T13:53:07.204Z,2.25
2022-09-07T13:56:08.612Z,2.65
2022-09-07T14:01:45.429Z,2.47
2022-09-07T14:04:41.264Z,3.45
2022-09-07T14:07:29.692Z,2.70
2022-09-07T14:10:25.147Z,2.60
2022-09-07T14:13:12.830Z,2.38
2022-09-07T14:15:58.636Z,2.28
2022-09-07T14:18:44.415Z,1.92
2022-09-07T14:21:31.292Z,2.90
2022-09-07T14:24:29.693Z,2.50
2022-09-07T14:27:35.006Z,2.20
2022-09-07T14:30:25.313Z,2.63
2022-09-07T14:33:17.401Z,2.40
2022-09-07T14:36:23.294Z,2.63
2022-09-07T14:39:12.251Z,2.72
2022-09-07T14:41:58.929Z,2.15
2022-09-07T14:44:45.416Z,2.17
2022-09-07T14:47:34.071Z,2.30
2022-09-07T14:50:34.710Z,2.30
2022-09-07T14:53:36.309Z,2.10
2022-09-07T14:56:31.489Z,2.40
2022-09-07T14:59:28.518Z,2.63
2022-09-07T15:02:28.237Z,2.30
2022-09-07T15:05:25.969Z,2.55
2022-09-07T15:08:20.383Z,2.40
2022-09-07T15:14:20.787Z,2.00
2022-09-07T15:20:42.747Z,2.53
2022-09-07T15:23:29.305Z,2.63
2022-09-07T15:29:21.576Z,2.30
2022-09-07T15:32:09.962Z,2.40
2022-09-07T15:34:55.354Z,2.28
2022-09-07T15:41:18.143Z,2.50
2022-09-07T15:43:57.893Z,2.50
2022-09-07T15:47:43.225Z,2.35
2022-09-07T15:49:51.512Z,2.58
2022-09-07T15:52:39.930Z,4.65
2022-09-07T15:55:25.740Z,7.55
2022-09-07T15:58:14.395Z,13.80
2022-09-07T16:04:07.206Z,14.40
2022-09-07T16:06:52.524Z,6.50
2022-09-07T16:09:37.985Z,4.85
2022-09-07T16:15:28.656Z,2.78
2022-09-07T16:18:17.133Z,2.85
2022-09-07T16:21:06.727Z,3.00
2022-09-07T16:23:54.162Z,2.92
2022-09-07T16:26:40.100Z,3.10
2022-09-07T16:29:26.670Z,6.60
2022-09-07T16:35:18.155Z,15.70
2022-09-07T16:41:17.080Z,12.55
2022-09-07T16:44:02.937Z,11.85
2022-09-07T16:46:50.412Z,24.08
2022-09-07T16:49:36.744Z,30.00
2022-09-07T16:52:23.380Z,17.65
2022-09-07T16:55:09.337Z,12.75
2022-09-07T17:01:00.178Z,17.08
2022-09-07T17:03:46.275Z,22.20
2022-09-07T17:06:31.717Z,17.25
2022-09-07T17:09:17.225Z,14.68
2022-09-07T17:12:03.641Z,11.90
2022-09-07T17:14:48.946Z,15.25
2022-09-07T17:17:34.446Z,19.02
2022-09-07T17:20:19.861Z,23.85
2022-09-07T17:23:05.400Z,27.27
2022-09-07T17:25:51.023Z,29.52
2022-09-07T17:28:37.626Z,24.20
2022-09-07T17:34:31.596Z,27.13
2022-09-07T17:37:17.736Z,49.72
2022-09-07T17:40:05.745Z,30.85
2022-09-07T17:46:03.012Z,32.90
2022-09-07T17:48:57.115Z,52.90
2022-09-07T17:51:43.860Z,63.25
2022-09-07T17:54:29.065Z,89.72
2022-09-07T17:57:14.422Z,65.00
2022-09-07T18:00:16.213Z,53.00
2022-09-07T18:03:03.513Z,36.58
2022-09-07T18:05:53.634Z,32.05
2022-09-07T18:08:39.576Z,25.92
2022-09-07T18:14:31.049Z,21.98
2022-09-07T18:17:16.796Z,27.23
2022-09-07T18:20:02.497Z,35.95
2022-09-07T18:22:48.435Z,38.25
2022-09-07T18:25:34.472Z,33.17
2022-09-07T18:31:26.178Z,26.73
2022-09-07T18:34:12.116Z,23.63
2022-09-07T18:36:58.226Z,22.35
2022-09-07T18:39:43.736Z,19.60
2022-09-07T18:42:30.318Z,19.33
2022-09-07T18:45:31.225Z,19.30
2022-09-07T18:48:16.793Z,15.95
2022-09-07T18:51:02.742Z,15.35
2022-09-07T18:53:48.509Z,17.20
2022-09-07T18:56:34.011Z,15.93
2022-09-07T18:59:19.476Z,13.02
2022-09-07T19:02:08.021Z,19.42
2022-09-07T19:08:03.511Z,25.80
2022-09-07T19:10:49.113Z,25.80
2022-09-07T19:13:35.858Z,28.05
2022-09-07T19:16:21.587Z,26.67
2022-09-07T19:19:07.464Z,40.88
2022-09-07T19:21:54.576Z,39.20
2022-09-07T19:24:40.099Z,39.13
2022-09-07T19:27:27.124Z,33.88
2022-09-07T19:30:13.286Z,32.95
2022-09-07T19:33:03.996Z,29.63
2022-09-07T19:35:50.780Z,19.52
2022-09-07T19:38:37.007Z,14.48
2022-09-07T19:41:22.620Z,11.45
2022-09-07T19:44:08.546Z,10.43
2022-09-07T19:46:53.857Z,11.52
2022-09-07T19:49:39.347Z,13.50
2022-09-07T19:52:24.714Z,12.35
2022-09-07T19:55:10.133Z,12.63
2022-09-07T19:57:55.572Z,12.25
2022-09-07T20:00:41.827Z,12.27
2022-09-07T20:03:27.247Z,13.00
2022-09-07T20:06:15.716Z,13.05
2022-09-07T20:09:03.244Z,12.77
2022-09-07T20:11:52.864Z,11.80
2022-09-07T20:14:38.158Z,12.52
2022-09-07T20:17:24.175Z,11.70
2022-09-07T20:20:10.085Z,12.15
2022-09-07T20:22:55.858Z,13.70
2022-09-07T20:25:41.097Z,14.65
2022-09-07T20:28:27.243Z,13.70
2022-09-07T20:31:20.314Z,14.32
2022-09-07T20:34:05.886Z,13.00
2022-09-07T20:36:52.204Z,11.68
2022-09-07T20:39:39.568Z,11.98
2022-09-07T20:42:25.491Z,10.13
2022-09-07T20:45:11.037Z,8.90
2022-09-07T20:47:56.280Z,10.52
2022-09-07T20:50:42.039Z,11.50
2022-09-07T20:53:31.362Z,12.27
2022-09-07T20:56:22.377Z,13.00
2022-09-07T20:59:08.172Z,15.95
2022-09-07T21:01:53.660Z,14.23
2022-09-07T21:04:42.197Z,15.40
2022-09-07T21:07:27.448Z,15.50
2022-09-07T21:10:12.883Z,14.35
2022-09-07T21:12:58.176Z,16.02
2022-09-07T21:15:44.919Z,15.48
2022-09-07T21:18:30.486Z,12.73
2022-09-07T21:21:20.374Z,11.73
2022-09-07T21:24:12.937Z,9.75
2022-09-07T21:29:43.972Z,9.15
2022-09-07T21:32:29.290Z,11.27
2022-09-07T21:35:14.720Z,8.82
2022-09-07T21:38:00.701Z,8.90
2022-09-07T21:40:46.216Z,9.38
2022-09-07T21:43:31.654Z,9.20
2022-09-07T21:46:18.709Z,9.07
2022-09-07T21:49:04.704Z,8.80
2022-09-07T21:51:50.374Z,8.93
2022-09-07T21:54:35.901Z,9.00
2022-09-07T21:57:21.163Z,9.52
2022-09-07T22:00:08.816Z,10.80
2022-09-07T22:02:54.705Z,9.95
2022-09-07T22:05:40.111Z,9.60
2022-09-07T22:08:25.581Z,9.68
2022-09-07T22:11:17.446Z,8.85
2022-09-07T22:14:04.476Z,8.05
2022-09-07T22:16:50.087Z,9.52
2022-09-07T22:19:35.817Z,9.73
2022-09-07T22:22:21.422Z,9.00
2022-09-07T22:25:06.979Z,8.82
2022-09-07T22:27:53.429Z,8.80
2022-09-07T22:30:39.005Z,10.00
2022-09-07T22:33:24.350Z,10.90
2022-09-07T22:36:25.052Z,8.93
2022-09-07T22:39:16.796Z,11.32
2022-09-07T22:42:02.427Z,10.50
2022-09-07T22:44:47.784Z,9.98
2022-09-07T22:47:33.274Z,10.38
2022-09-07T22:50:20.379Z,11.70
2022-09-07T22:53:05.528Z,11.38
2022-09-07T22:55:50.927Z,11.00
2022-09-07T22:58:37.335Z,10.55
2022-09-07T23:01:23.566Z,10.38
2022-09-07T23:04:10.498Z,8.80
2022-09-07T23:06:56.847Z,8.43
2022-09-07T23:09:41.995Z,8.10
2022-09-07T23:12:27.419Z,7.25
2022-09-07T23:15:12.710Z,7.47
2022-09-07T23:17:58.571Z,6.45
2022-09-07T23:20:44.194Z,6.72
2022-09-07T23:23:29.896Z,6.28
2022-09-07T23:26:15.088Z,6.55
2022-09-07T23:29:03.429Z,6.82
2022-09-07T23:31:49.024Z,6.20
2022-09-07T23:34:34.676Z,6.18
2022-09-07T23:37:19.994Z,5.57
2022-09-07T23:40:06.420Z,7.55
2022-09-07T23:42:51.799Z,5.38
2022-09-07T23:45:37.134Z,7.47
2022-09-07T23:48:25.141Z,6.28
2022-09-07T23:51:11.916Z,6.43
2022-09-07T23:53:57.280Z,6.78
2022-09-07T23:56:42.893Z,6.40
2022-09-07T23:59:28.090Z,6.63
